Flight Track Log - Related Links

Times and Time Zones

All times are in EDT time to prevent confusion due to time zone crossing. See the N325P flight status page for this flight to view local times or setup timezone preferences in your user account.

Time Position Orientation Groundspeed Altitude Reporting Facility
EDT Latitude Longitude Course Direction KTS MPH feet Rate Location/Type
Mon 12:04:59 PM 34.4264 -119.8328 117° Southeast 88 101 600  Level Los Angeles Center
Mon 12:05:23 PM 34.4217 -119.8214 117° Southeast 121 139 900 618 Climbing Los Angeles Center
Mon 12:06:07 PM 34.4039 -119.8011 137° Southeast 126 145 1,300 636 Climbing Los Angeles Center
Mon 12:06:29 PM 34.3928 -119.7889 138° Southeast 135 155 1,600 677 Climbing Los Angeles Center
Mon 12:07:09 PM 34.3758 -119.7692 136° Southeast 131 151 2,000 655 Climbing Los Angeles Center
Mon 12:07:24 PM 34.3664 -119.7583 137° Southeast 139 160 2,200 677 Climbing Los Angeles Center
Mon 12:08:11 PM 34.3481 -119.7369 136° Southeast 135 155 2,700 556 Climbing Los Angeles Center
Mon 12:09:12 PM 34.3317 -119.7044 121° Southeast 138 159 3,200 828 Climbing Los Angeles Center
Mon 12:09:38 PM 34.3308 -119.6658 91° East 137 158 3,900 857 Climbing Los Angeles Center
Mon 12:10:15 PM 34.3247 -119.6389 105° East 140 161 4,100 558 Climbing Los Angeles Center
Mon 12:11:04 PM 34.3244 -119.6000 90° East 137 158 4,700 491 Climbing Los Angeles Center
Mon 12:12:05 PM 34.3158 -119.5508 102° East 145 167 5,000 198 Climbing Los Angeles Center
Mon 12:13:05 PM 34.3053 -119.5022 105° East 150 173 5,100 -79 Climbing Los Angeles Center
Mon 12:13:21 PM 34.2981 -119.4964 146° Southeast 146 168 4,900 -98 Descending Los Angeles Center
Mon 12:14:06 PM 34.3017 -119.4461 85° East 159 183 5,000  Climbing Los Angeles Center
Mon 12:14:24 PM 34.2944 -119.4433 162° South 152 175 4,900  Descending Los Angeles Center
Mon 12:15:00 PM 34.2975 -119.3981 85° East 165 190 5,000  Climbing Los Angeles Center
Mon 12:15:26 PM 34.2872 -119.3808 126° Southeast 155 178 4,900 98 Descending Los Angeles Center
Mon 12:16:01 PM 34.2944 -119.3444 76° East 163 188 5,100 97 Climbing Los Angeles Center
Mon 12:16:28 PM 34.2875 -119.3214 110° East 163 188 5,000  Descending Los Angeles Center
Mon 12:17:02 PM 34.2881 -119.2864 89° East 166 191 5,100 -81 Climbing Los Angeles Center
Mon 12:17:42 PM 34.2831 -119.2672 108° East 165 190 4,900 -100 Descending Los Angeles Center
Mon 12:18:02 PM 34.2842 -119.2306 88° East 169 194 5,000 97 Climbing Los Angeles Center
Mon 12:18:44 PM 34.2789 -119.1994 102° East 167 192 5,000  Level Los Angeles Center
Mon 12:19:47 PM 34.2772 -119.1419 92° East 168 193 5,000  Level Los Angeles Center
Mon 12:20:49 PM 34.2708 -119.0861 98° East 169 194 5,000  Level Los Angeles Center
Mon 12:21:51 PM 34.2631 -119.0194 98° East 168 193 5,000  Level Los Angeles Center
Mon 12:22:53 PM 34.2586 -118.9636 95° East 167 192 5,000 48 Level Los Angeles Center
Mon 12:23:55 PM 34.2556 -118.9056 94° East 169 194 5,100 48 Climbing Los Angeles Center
Mon 12:24:57 PM 34.2547 -118.8478 91° East 172 198 5,100 -48 Level Los Angeles Center
Mon 12:25:59 PM 34.2467 -118.7931 100° East 167 192 5,000 -48 Descending Los Angeles Center
Mon 12:27:02 PM 34.2425 -118.7381 95° East 163 188 5,000 40 Level Los Angeles Center
Mon 12:28:28 PM 34.2367 -118.6569 95° East 170 196 5,100 40 Climbing Los Angeles Center
Mon 12:29:31 PM 34.2303 -118.5864 96° East 174 200 5,100  Level Los Angeles Center
Mon 12:30:33 PM 34.2272 -118.5278 94° East 175 201 5,100  Level Los Angeles Center
Mon 12:31:35 PM 34.2169 -118.4733 103° East 170 196 5,100 -48 Level Los Angeles Center
Mon 12:32:37 PM 34.2047 -118.4389 113° Southeast 149 171 5,000  Descending Los Angeles Center
Mon 12:33:39 PM 34.1900 -118.3828 108° East 128 147 5,100 48 Climbing Los Angeles Center
Mon 12:34:41 PM 34.1778 -118.3408 109° East 129 148 5,100 -48 Level Los Angeles Center
Mon 12:35:43 PM 34.1650 -118.2983 110° East 133 153 5,000 -480 Descending Los Angeles Center
Mon 12:36:46 PM 34.1506 -118.2558 112° Southeast 136 157 4,100 -624 Descending Los Angeles Center
Mon 12:37:48 PM 34.1217 -118.2736 207° Southwest 137 158 3,700 -387 Descending Los Angeles Center
Mon 12:38:50 PM 34.1083 -118.3158 249° West 134 154 3,300 -532 Descending Los Angeles Center
Mon 12:39:52 PM 34.0836 -118.3600 236° Southwest 135 155 2,600 -871 Descending Los Angeles Center
Mon 12:40:54 PM 34.0592 -118.3964 231° Southwest 139 160 1,500 -871 Descending Los Angeles Center
Mon 12:41:56 PM 34.0344 -118.4264 225° Southwest 134 154 800 -629 Descending Los Angeles Center
Mon 12:42:58 PM 34.0183 -118.4492 230° Southwest 126 145 200 -581 Descending Los Angeles Center

Login

Don't have an account? Register now (free) for customized features, flight alerts, and more!